createdAt,value
2023-05-16T00:00:00.876Z,5.04
2023-05-16T00:01:00.818Z,5.07
2023-05-16T00:02:00.858Z,5.11
2023-05-16T00:03:00.903Z,5.19
2023-05-16T00:04:00.991Z,5.17
2023-05-16T00:05:00.816Z,5.57
2023-05-16T00:06:00.806Z,5.61
2023-05-16T00:07:00.876Z,4.85
2023-05-16T00:09:00.843Z,5.27
2023-05-16T00:10:00.865Z,5.05
2023-05-16T00:11:00.833Z,6.20
2023-05-16T00:12:00.856Z,5.48
2023-05-16T00:13:00.869Z,5.31
2023-05-16T00:14:00.826Z,5.49
2023-05-16T00:15:00.973Z,4.86
2023-05-16T00:17:00.942Z,5.69
2023-05-16T00:18:00.912Z,5.33
2023-05-16T00:19:01.208Z,5.97
2023-05-16T00:20:00.873Z,5.76
2023-05-16T00:21:00.857Z,6.09
2023-05-16T00:22:00.837Z,6.61
2023-05-16T00:23:00.930Z,6.78
2023-05-16T00:24:00.839Z,7.82
2023-05-16T00:25:00.877Z,7.14
2023-05-16T00:26:00.887Z,7.44
2023-05-16T00:27:00.848Z,7.81
2023-05-16T00:28:00.878Z,8.00
2023-05-16T00:29:00.891Z,7.22
2023-05-16T00:30:00.920Z,6.93
2023-05-16T00:31:00.912Z,8.27
2023-05-16T00:32:00.920Z,7.42
2023-05-16T00:33:00.928Z,8.16
2023-05-16T00:34:00.966Z,7.56
2023-05-16T00:35:00.914Z,7.71
2023-05-16T00:36:00.926Z,8.52
2023-05-16T00:37:00.899Z,8.45
2023-05-16T00:38:00.889Z,8.61
2023-05-16T00:40:00.914Z,8.33
2023-05-16T00:41:00.922Z,8.46
2023-05-16T00:42:00.913Z,8.56
2023-05-16T00:43:00.895Z,8.92
2023-05-16T00:44:00.916Z,8.71
2023-05-16T00:45:00.921Z,8.79
2023-05-16T00:47:00.949Z,8.76
2023-05-16T00:48:00.948Z,9.16
2023-05-16T00:49:00.947Z,8.70
2023-05-16T00:50:00.961Z,8.52
2023-05-16T00:51:00.933Z,9.46
2023-05-16T00:52:00.970Z,9.04
2023-05-16T00:53:00.919Z,8.97
2023-05-16T00:54:00.970Z,9.06
2023-05-16T00:55:00.944Z,7.93
2023-05-16T00:56:00.926Z,9.43
2023-05-16T00:58:00.962Z,9.38
2023-05-16T00:59:00.982Z,8.88
2023-05-16T01:01:00.964Z,8.42
2023-05-16T01:02:01.101Z,8.26
2023-05-16T01:03:01.175Z,8.52
2023-05-16T01:04:01.176Z,7.56
2023-05-16T01:05:00.984Z,6.85
2023-05-16T01:06:00.962Z,6.96
2023-05-16T01:07:00.982Z,9.02
2023-05-16T01:08:01.051Z,6.83
2023-05-16T01:09:00.958Z,7.86
2023-05-16T01:10:01.025Z,8.01
2023-05-16T01:11:00.997Z,8.56
2023-05-16T01:12:01.013Z,7.38
2023-05-16T01:13:01.001Z,8.52
2023-05-16T01:14:00.964Z,8.32
2023-05-16T01:15:01.008Z,8.58
2023-05-16T01:16:01.018Z,9.05
2023-05-16T01:17:01.033Z,8.19
2023-05-16T01:18:01.050Z,7.81
2023-05-16T01:19:01.014Z,7.27
2023-05-16T01:20:01.050Z,7.65
2023-05-16T01:22:01.019Z,7.76
2023-05-16T01:24:01.042Z,7.92
2023-05-16T01:26:01.044Z,7.14
2023-05-16T01:27:01.018Z,7.00
2023-05-16T01:28:01.000Z,6.71
2023-05-16T01:29:01.036Z,7.02
2023-05-16T01:30:00.984Z,6.69
2023-05-16T01:31:01.135Z,7.07
2023-05-16T01:32:01.127Z,6.89
2023-05-16T01:33:01.115Z,6.49
2023-05-16T01:34:01.047Z,6.50
2023-05-16T01:35:01.017Z,6.62
2023-05-16T01:38:01.098Z,7.43
2023-05-16T01:40:01.022Z,7.06
2023-05-16T01:41:01.076Z,7.04
2023-05-16T01:42:01.049Z,6.11
2023-05-16T01:44:01.106Z,7.72
2023-05-16T01:46:01.103Z,6.63
2023-05-16T01:48:01.104Z,7.63
2023-05-16T01:49:01.087Z,8.24
2023-05-16T01:51:01.113Z,6.84
2023-05-16T01:52:01.106Z,7.22
2023-05-16T01:53:01.085Z,7.42
2023-05-16T01:54:01.130Z,7.87
2023-05-16T01:55:01.107Z,7.83
2023-05-16T01:56:01.082Z,7.63
2023-05-16T01:57:01.130Z,8.15
2023-05-16T02:00:01.147Z,9.32
2023-05-16T02:02:01.134Z,9.09
2023-05-16T02:04:01.228Z,9.21
2023-05-16T02:05:01.121Z,9.74
2023-05-16T02:06:01.131Z,9.32
2023-05-16T02:07:01.173Z,9.18
2023-05-16T02:09:01.107Z,9.90
2023-05-16T02:10:01.228Z,9.31
2023-05-16T02:11:01.138Z,10.19
2023-05-16T02:13:01.168Z,10.30
2023-05-16T02:14:01.136Z,9.23
2023-05-16T02:15:01.155Z,10.68
2023-05-16T02:18:01.233Z,11.29
2023-05-16T02:19:01.234Z,10.00
2023-05-16T02:21:01.161Z,9.78
2023-05-16T02:22:01.136Z,10.73
2023-05-16T02:25:01.193Z,10.22
2023-05-16T02:27:01.153Z,10.76
2023-05-16T02:28:01.176Z,10.32
2023-05-16T02:29:01.158Z,11.25
2023-05-16T02:31:01.261Z,11.07
2023-05-16T02:32:01.184Z,11.79
2023-05-16T02:33:01.266Z,10.51
2023-05-16T02:34:01.209Z,10.32
2023-05-16T02:36:01.200Z,10.51
2023-05-16T02:39:01.191Z,10.72
2023-05-16T02:43:01.187Z,11.81
2023-05-16T02:44:01.264Z,10.88
2023-05-16T02:45:01.290Z,11.03
2023-05-16T02:46:01.261Z,10.87
2023-05-16T02:48:01.272Z,11.31
2023-05-16T02:49:01.257Z,11.42
2023-05-16T02:50:01.285Z,11.18
2023-05-16T02:52:01.258Z,10.59
2023-05-16T02:53:01.239Z,12.39
2023-05-16T02:54:01.286Z,11.65
2023-05-16T02:56:01.241Z,11.80
2023-05-16T02:57:01.346Z,12.32
2023-05-16T02:58:01.227Z,11.31
2023-05-16T02:59:01.248Z,12.13
2023-05-16T03:00:01.307Z,11.54
2023-05-16T03:01:01.309Z,11.75
2023-05-16T03:02:01.432Z,12.16
2023-05-16T03:03:01.361Z,11.91
2023-05-16T03:04:01.442Z,11.37
2023-05-16T03:06:01.258Z,11.98
2023-05-16T03:07:01.321Z,12.29
2023-05-16T03:08:01.262Z,11.65
2023-05-16T03:09:01.247Z,11.58
2023-05-16T03:10:01.254Z,12.54
2023-05-16T03:12:01.280Z,11.58
2023-05-16T03:15:01.270Z,13.05
2023-05-16T03:16:01.389Z,12.12
2023-05-16T03:17:01.269Z,12.50
2023-05-16T03:18:01.368Z,13.51
2023-05-16T03:19:01.306Z,12.97
2023-05-16T03:20:01.354Z,13.34
2023-05-16T03:22:01.318Z,12.68
2023-05-16T03:23:01.324Z,13.04
2023-05-16T03:24:01.342Z,13.11
2023-05-16T03:26:01.360Z,12.96
2023-05-16T03:27:01.351Z,12.35
2023-05-16T03:28:01.293Z,12.19
2023-05-16T03:31:01.354Z,12.14
2023-05-16T03:33:01.431Z,12.56
2023-05-16T03:34:01.369Z,11.82
2023-05-16T03:35:01.391Z,13.09
2023-05-16T03:37:01.364Z,12.65
2023-05-16T03:40:01.394Z,13.10
2023-05-16T03:41:01.377Z,12.32
2023-05-16T03:42:01.404Z,11.93
2023-05-16T03:43:01.333Z,12.18
2023-05-16T03:46:01.402Z,13.38
2023-05-16T03:47:01.420Z,12.17
2023-05-16T03:48:01.472Z,12.59
2023-05-16T03:49:01.384Z,12.34
2023-05-16T03:50:01.420Z,12.49
2023-05-16T03:51:01.371Z,11.46
2023-05-16T03:52:01.388Z,13.05
2023-05-16T03:53:01.433Z,13.21
2023-05-16T03:54:01.432Z,12.46
2023-05-16T03:55:01.400Z,12.32
2023-05-16T03:56:01.396Z,13.24
2023-05-16T03:57:01.430Z,11.51
2023-05-16T03:59:01.417Z,12.87
2023-05-16T04:00:01.407Z,12.04
2023-05-16T04:02:01.433Z,12.17
2023-05-16T04:06:01.532Z,11.74
2023-05-16T04:07:01.433Z,12.36
2023-05-16T04:08:01.430Z,12.24
2023-05-16T04:09:01.435Z,10.90
2023-05-16T04:10:01.469Z,11.43
2023-05-16T04:11:01.448Z,12.83
2023-05-16T04:12:01.431Z,13.08
2023-05-16T04:13:01.439Z,13.16
2023-05-16T04:14:01.548Z,11.82
2023-05-16T04:16:01.430Z,11.95
2023-05-16T04:17:01.487Z,11.99
2023-05-16T04:18:01.595Z,12.18
2023-05-16T04:19:01.488Z,11.26
2023-05-16T04:20:01.485Z,11.48
2023-05-16T04:21:01.435Z,11.59
2023-05-16T04:23:01.493Z,12.39
2023-05-16T04:24:01.490Z,11.03
2023-05-16T04:25:01.462Z,11.03
2023-05-16T04:27:01.502Z,10.90
2023-05-16T04:30:01.476Z,10.92
2023-05-16T04:32:01.622Z,11.71
2023-05-16T04:34:01.509Z,11.06
2023-05-16T04:36:01.557Z,12.00
2023-05-16T04:38:01.525Z,11.79
2023-05-16T04:39:01.534Z,10.92
2023-05-16T04:40:01.556Z,11.52
2023-05-16T04:42:01.485Z,12.68
2023-05-16T04:43:01.518Z,11.67
2023-05-16T04:45:01.532Z,11.48
2023-05-16T04:46:01.570Z,11.28
2023-05-16T04:47:01.549Z,11.01
2023-05-16T04:48:01.660Z,10.90
2023-05-16T04:49:01.568Z,11.04
2023-05-16T04:50:01.597Z,10.73
2023-05-16T04:51:01.508Z,11.36
2023-05-16T04:52:01.569Z,11.51
2023-05-16T04:54:01.560Z,11.69
2023-05-16T04:55:01.581Z,10.90
2023-05-16T04:56:01.564Z,11.70
2023-05-16T04:57:01.570Z,12.05
2023-05-16T04:58:01.589Z,12.09
2023-05-16T04:59:01.552Z,11.26
2023-05-16T05:00:01.629Z,11.43
2023-05-16T05:01:01.988Z,10.87
2023-05-16T05:02:01.671Z,10.69
2023-05-16T05:03:01.675Z,12.18
2023-05-16T05:04:01.575Z,11.75
2023-05-16T05:05:01.664Z,11.87
2023-05-16T05:06:01.618Z,10.73
2023-05-16T05:07:01.594Z,11.15
2023-05-16T05:08:01.615Z,11.83
2023-05-16T05:09:01.579Z,11.60
2023-05-16T05:10:01.605Z,12.02
2023-05-16T05:11:01.599Z,11.48
2023-05-16T05:12:01.602Z,11.94
2023-05-16T05:13:01.591Z,12.28
2023-05-16T05:14:01.601Z,10.81
2023-05-16T05:15:01.646Z,10.70
2023-05-16T05:16:01.606Z,11.91
2023-05-16T05:19:01.737Z,11.20
2023-05-16T05:20:03.098Z,12.10
2023-05-16T05:24:01.680Z,11.62
2023-05-16T05:29:05.661Z,12.02
2023-05-16T05:30:01.626Z,11.07
2023-05-16T05:32:01.745Z,11.29
2023-05-16T05:33:01.720Z,12.72
2023-05-16T05:35:01.636Z,11.24
2023-05-16T05:36:03.967Z,11.46
2023-05-16T05:37:01.684Z,11.18
2023-05-16T05:38:01.686Z,11.53
2023-05-16T05:39:01.687Z,10.52
2023-05-16T05:40:01.672Z,10.91
2023-05-16T05:41:01.687Z,12.56
2023-05-16T05:42:01.711Z,12.08
2023-05-16T05:43:01.679Z,11.17
2023-05-16T05:44:01.679Z,11.13
2023-05-16T05:45:01.676Z,11.58
2023-05-16T05:46:01.758Z,12.36
2023-05-16T05:47:01.711Z,11.11
2023-05-16T05:48:01.720Z,11.33
2023-05-16T05:49:01.889Z,11.65
2023-05-16T05:50:01.713Z,11.48
2023-05-16T05:51:01.692Z,11.04
2023-05-16T05:52:01.714Z,10.21
2023-05-16T05:53:01.697Z,11.35
2023-05-16T05:54:01.735Z,10.41
2023-05-16T05:56:01.731Z,11.21
2023-05-16T05:57:01.726Z,10.69
2023-05-16T05:58:01.689Z,11.98
2023-05-16T06:01:01.728Z,10.80
2023-05-16T06:02:01.775Z,11.65
2023-05-16T06:04:02.403Z,11.59
2023-05-16T06:05:01.784Z,11.63
2023-05-16T06:06:01.793Z,11.01
2023-05-16T06:07:01.735Z,11.40
2023-05-16T06:08:01.744Z,12.51
2023-05-16T06:09:01.731Z,12.20
2023-05-16T06:10:03.647Z,12.54
2023-05-16T06:11:01.728Z,12.63
2023-05-16T06:16:01.725Z,12.78
2023-05-16T06:17:01.804Z,12.65
2023-05-16T06:19:01.839Z,12.61
2023-05-16T06:21:01.793Z,11.64
2023-05-16T06:22:01.839Z,11.59
2023-05-16T06:24:01.778Z,12.32
2023-05-16T06:25:01.816Z,12.58
2023-05-16T06:26:01.785Z,12.90
2023-05-16T06:28:01.826Z,12.17
2023-05-16T06:29:01.810Z,12.08
2023-05-16T06:30:01.808Z,11.19
2023-05-16T06:31:01.815Z,11.05
2023-05-16T06:32:01.961Z,12.43
2023-05-16T06:33:01.865Z,11.52
2023-05-16T06:34:01.804Z,12.20
2023-05-16T06:35:01.827Z,11.48
2023-05-16T06:36:01.855Z,12.00
2023-05-16T06:37:01.777Z,12.40
2023-05-16T06:38:01.810Z,12.65
2023-05-16T06:39:01.841Z,12.60
2023-05-16T06:40:01.824Z,12.12
2023-05-16T06:41:01.875Z,11.87
2023-05-16T06:43:01.854Z,13.45
2023-05-16T06:44:01.860Z,13.24
2023-05-16T06:45:01.823Z,11.84
2023-05-16T06:46:01.921Z,11.89
2023-05-16T06:48:01.877Z,11.39
2023-05-16T06:50:01.851Z,13.25
2023-05-16T06:51:01.848Z,11.67
2023-05-16T06:52:01.862Z,11.14
2023-05-16T06:54:04.060Z,12.23
2023-05-16T06:56:01.873Z,12.47
2023-05-16T06:57:01.914Z,13.41
2023-05-16T06:58:01.871Z,11.80
2023-05-16T06:59:01.884Z,12.03
2023-05-16T07:00:01.921Z,11.08
2023-05-16T07:01:01.929Z,11.74
2023-05-16T07:02:01.912Z,12.73
2023-05-16T07:03:02.009Z,12.29
2023-05-16T07:07:01.947Z,11.74
2023-05-16T07:08:01.888Z,12.62
2023-05-16T07:09:01.933Z,13.46
2023-05-16T07:10:01.919Z,11.47
2023-05-16T07:11:01.866Z,12.52
2023-05-16T07:12:01.953Z,13.03
2023-05-16T07:13:01.926Z,11.54
2023-05-16T07:15:01.902Z,12.48
2023-05-16T07:16:01.940Z,12.26
2023-05-16T07:17:02.058Z,13.38
2023-05-16T07:18:02.005Z,11.99
2023-05-16T07:20:05.034Z,13.23
2023-05-16T07:21:02.002Z,12.71
2023-05-16T07:22:01.937Z,11.97
2023-05-16T07:23:01.958Z,13.54
2023-05-16T07:24:01.903Z,14.36
2023-05-16T07:25:01.934Z,13.98
2023-05-16T07:26:01.910Z,14.56
2023-05-16T07:27:01.920Z,15.00
2023-05-16T07:28:01.955Z,14.95
2023-05-16T07:29:01.915Z,15.78
2023-05-16T07:30:01.925Z,16.50
2023-05-16T07:31:02.007Z,15.87
2023-05-16T07:32:01.994Z,14.28
2023-05-16T07:33:01.992Z,15.31
2023-05-16T07:34:01.981Z,13.24
2023-05-16T07:37:01.962Z,15.04
2023-05-16T07:38:02.020Z,15.05
2023-05-16T07:39:02.018Z,15.00
2023-05-16T07:40:01.951Z,14.71
2023-05-16T07:41:01.971Z,14.93
2023-05-16T07:42:01.991Z,14.88
2023-05-16T07:43:01.971Z,15.92
2023-05-16T07:44:01.978Z,15.00
2023-05-16T07:45:01.989Z,14.69
2023-05-16T07:46:02.040Z,15.95
2023-05-16T07:47:01.967Z,16.49
2023-05-16T07:48:02.105Z,16.45
2023-05-16T07:49:02.039Z,14.34
2023-05-16T07:50:01.978Z,16.34
2023-05-16T07:51:02.047Z,16.63
2023-05-16T07:52:02.018Z,17.80
2023-05-16T07:53:01.967Z,18.38
2023-05-16T07:54:01.997Z,16.45
2023-05-16T07:55:01.972Z,17.20
2023-05-16T07:56:02.056Z,16.42
2023-05-16T07:57:02.005Z,17.95
2023-05-16T07:58:02.013Z,16.76
2023-05-16T07:59:02.099Z,17.33
2023-05-16T08:00:01.984Z,17.08
2023-05-16T08:01:02.005Z,17.86
2023-05-16T08:02:02.178Z,18.23
2023-05-16T08:03:02.105Z,17.57
2023-05-16T08:04:02.063Z,17.61
2023-05-16T08:05:02.099Z,17.78
2023-05-16T08:06:02.238Z,16.40
2023-05-16T08:07:02.018Z,16.42
2023-05-16T08:09:02.037Z,18.75
2023-05-16T08:10:02.004Z,18.03
2023-05-16T08:11:02.022Z,18.51
2023-05-16T08:12:02.018Z,17.86
2023-05-16T08:13:02.121Z,18.38
2023-05-16T08:16:02.154Z,18.94
2023-05-16T08:17:02.055Z,18.49
2023-05-16T08:18:02.112Z,20.30
2023-05-16T08:19:02.121Z,21.56
2023-05-16T08:20:02.107Z,19.27
2023-05-16T08:21:02.117Z,19.85
2023-05-16T08:22:02.075Z,20.09
2023-05-16T08:23:02.066Z,19.41
2023-05-16T08:24:02.083Z,20.82
2023-05-16T08:25:02.081Z,20.34
2023-05-16T08:26:02.100Z,20.01
2023-05-16T08:27:02.095Z,19.43
2023-05-16T08:28:02.114Z,19.27
2023-05-16T08:29:02.136Z,19.95
2023-05-16T08:30:02.093Z,21.49
2023-05-16T08:31:02.185Z,21.03
2023-05-16T08:32:02.151Z,21.48
2023-05-16T08:34:02.107Z,21.50
2023-05-16T08:35:02.132Z,20.55
2023-05-16T08:36:02.105Z,20.50
2023-05-16T08:37:02.095Z,22.81
2023-05-16T08:39:02.199Z,22.53
2023-05-16T08:40:02.108Z,21.57
2023-05-16T08:41:02.148Z,21.77
2023-05-16T08:42:02.134Z,20.98
2023-05-16T08:44:02.173Z,21.20
2023-05-16T08:45:02.129Z,20.84
2023-05-16T08:46:02.125Z,20.76
2023-05-16T08:47:02.186Z,20.36
2023-05-16T08:48:02.182Z,21.49
2023-05-16T08:49:02.163Z,23.18
2023-05-16T08:50:02.122Z,22.29
2023-05-16T08:51:02.188Z,21.48
2023-05-16T08:52:02.166Z,22.85
2023-05-16T08:53:02.157Z,21.99
2023-05-16T08:54:02.141Z,21.31
2023-05-16T08:56:02.187Z,22.28
2023-05-16T08:57:02.191Z,23.68
2023-05-16T08:58:02.185Z,23.40
2023-05-16T08:59:02.150Z,22.06
2023-05-16T09:00:02.216Z,23.79
2023-05-16T09:01:02.178Z,22.61
2023-05-16T09:02:02.204Z,22.06
2023-05-16T09:03:02.330Z,21.12
2023-05-16T09:04:02.292Z,22.26
2023-05-16T09:05:02.225Z,21.42
2023-05-16T09:06:02.183Z,23.27
2023-05-16T09:07:02.207Z,23.43
2023-05-16T09:08:02.228Z,22.15
2023-05-16T09:09:02.200Z,20.90
2023-05-16T09:10:02.223Z,21.39
2023-05-16T09:11:02.213Z,23.07
2023-05-16T09:12:02.227Z,22.73
2023-05-16T09:13:02.235Z,21.97
2023-05-16T09:14:02.224Z,21.54
2023-05-16T09:15:02.226Z,24.02
2023-05-16T09:16:02.232Z,23.59
2023-05-16T09:17:02.246Z,23.69
2023-05-16T09:18:02.431Z,21.61
2023-05-16T09:19:02.400Z,23.64
2023-05-16T09:20:02.211Z,22.32
2023-05-16T09:21:02.228Z,22.98
2023-05-16T09:22:02.264Z,23.26
2023-05-16T09:23:02.255Z,22.23
2023-05-16T09:24:02.252Z,21.45
2023-05-16T09:25:02.278Z,23.48
2023-05-16T09:26:02.278Z,21.50
2023-05-16T09:27:02.241Z,22.04
2023-05-16T09:28:03.377Z,23.92
2023-05-16T09:30:03.305Z,21.74
2023-05-16T09:31:02.332Z,21.49
2023-05-16T09:33:02.447Z,20.41
2023-05-16T09:34:02.290Z,22.01
2023-05-16T09:35:02.260Z,22.43
2023-05-16T09:37:02.247Z,20.55
2023-05-16T09:38:02.295Z,21.95
2023-05-16T09:39:02.303Z,22.96
2023-05-16T09:40:02.254Z,21.48
2023-05-16T09:41:02.286Z,22.17
2023-05-16T09:42:02.292Z,23.58
2023-05-16T09:43:02.329Z,22.82
2023-05-16T09:44:02.287Z,25.99
2023-05-16T09:45:02.329Z,26.55
2023-05-16T09:46:02.340Z,27.17
2023-05-16T09:47:02.331Z,24.41
2023-05-16T09:48:02.280Z,22.46
2023-05-16T09:49:02.331Z,22.97
2023-05-16T09:50:02.344Z,21.77
2023-05-16T09:51:02.519Z,23.14
2023-05-16T09:52:02.348Z,22.88
2023-05-16T09:53:02.321Z,22.97
2023-05-16T09:54:02.284Z,25.06
2023-05-16T09:55:02.350Z,27.15
2023-05-16T09:56:02.412Z,27.41
2023-05-16T09:57:03.261Z,25.41
2023-05-16T09:58:02.309Z,25.51
2023-05-16T09:59:02.349Z,26.66
2023-05-16T10:00:02.370Z,25.69
2023-05-16T10:01:02.292Z,24.77
2023-05-16T10:02:02.384Z,25.18
2023-05-16T10:03:04.763Z,24.16
2023-05-16T10:04:02.452Z,19.63
2023-05-16T10:05:05.417Z,20.24
2023-05-16T10:06:02.319Z,19.72
2023-05-16T10:07:02.365Z,20.90
2023-05-16T10:08:02.394Z,19.82
2023-05-16T10:10:02.395Z,18.85
2023-05-16T10:11:02.383Z,17.91
2023-05-16T10:12:02.390Z,18.96
2023-05-16T10:13:02.410Z,16.71
2023-05-16T10:14:02.357Z,15.23
2023-05-16T10:15:02.395Z,17.24
2023-05-16T10:16:02.454Z,17.63
2023-05-16T10:17:02.392Z,17.94
2023-05-16T10:18:02.523Z,17.32
2023-05-16T10:19:02.373Z,17.43
2023-05-16T10:20:02.373Z,17.28
2023-05-16T10:21:02.389Z,19.01
2023-05-16T10:22:02.419Z,18.16
2023-05-16T10:23:02.419Z,18.20
2023-05-16T10:24:02.372Z,17.18
2023-05-16T10:25:02.393Z,19.97
2023-05-16T10:26:02.403Z,19.45
2023-05-16T10:27:02.360Z,22.03
2023-05-16T10:28:02.411Z,22.22
2023-05-16T10:30:02.424Z,22.29
2023-05-16T10:31:02.427Z,22.39
2023-05-16T10:32:02.520Z,21.38
2023-05-16T10:33:02.522Z,21.68
2023-05-16T10:34:02.444Z,20.39
2023-05-16T10:35:02.419Z,20.91
2023-05-16T10:36:02.406Z,20.37
2023-05-16T10:37:02.451Z,19.10
2023-05-16T10:38:02.465Z,20.49
2023-05-16T10:39:02.468Z,20.04
2023-05-16T10:40:02.450Z,20.20
2023-05-16T10:41:02.427Z,20.70
2023-05-16T10:42:02.419Z,20.19
2023-05-16T10:43:02.434Z,22.30
2023-05-16T10:44:02.449Z,20.22
2023-05-16T10:45:05.848Z,21.27
2023-05-16T10:46:02.495Z,21.27
2023-05-16T10:47:02.471Z,21.14
2023-05-16T10:48:02.469Z,21.30
2023-05-16T10:49:02.435Z,20.10
2023-05-16T10:50:02.501Z,21.47
2023-05-16T10:51:02.440Z,21.25
2023-05-16T10:52:02.520Z,18.54
2023-05-16T10:53:02.457Z,17.79
2023-05-16T10:54:02.510Z,14.18
2023-05-16T10:55:02.446Z,15.12
2023-05-16T10:56:02.502Z,14.60
2023-05-16T10:57:02.497Z,15.39
2023-05-16T10:59:02.497Z,15.62
2023-05-16T11:00:02.477Z,15.93
2023-05-16T11:01:02.527Z,18.08
2023-05-16T11:02:02.550Z,17.47
2023-05-16T11:03:02.582Z,16.75
2023-05-16T11:04:02.871Z,17.48
2023-05-16T11:05:02.544Z,18.19
2023-05-16T11:06:02.501Z,17.12
2023-05-16T11:07:02.508Z,18.78
2023-05-16T11:08:02.468Z,19.46
2023-05-16T11:09:02.475Z,17.57
2023-05-16T11:10:02.510Z,18.61
2023-05-16T11:11:02.570Z,17.77
2023-05-16T11:12:02.510Z,17.61
2023-05-16T11:13:02.557Z,18.51
2023-05-16T11:14:02.503Z,18.90
2023-05-16T11:15:02.545Z,17.75
2023-05-16T11:16:02.503Z,19.07
2023-05-16T11:17:02.620Z,20.20
2023-05-16T11:18:02.554Z,19.28
2023-05-16T11:19:02.540Z,20.17
2023-05-16T11:20:02.556Z,18.95
2023-05-16T11:21:02.511Z,20.82
2023-05-16T11:22:02.519Z,19.69
2023-05-16T11:23:02.566Z,19.70
2023-05-16T11:24:02.558Z,19.93
2023-05-16T11:26:02.571Z,19.85
2023-05-16T11:27:02.540Z,21.24
2023-05-16T11:28:02.578Z,21.71
2023-05-16T11:29:02.598Z,20.78
2023-05-16T11:30:03.951Z,20.98
2023-05-16T11:31:02.595Z,21.45
2023-05-16T11:32:02.698Z,21.25
2023-05-16T11:33:02.700Z,20.35
2023-05-16T11:34:02.586Z,20.65
2023-05-16T11:35:02.539Z,20.83
2023-05-16T11:36:14.573Z,19.91
2023-05-16T11:37:03.607Z,22.21
2023-05-16T11:38:02.596Z,21.77
2023-05-16T11:39:02.644Z,21.32
2023-05-16T11:40:02.837Z,20.59
2023-05-16T11:41:02.623Z,20.09
2023-05-16T11:42:02.607Z,19.78
2023-05-16T11:43:02.935Z,19.98
2023-05-16T11:44:02.634Z,19.67
2023-05-16T11:45:02.604Z,20.32
2023-05-16T11:46:02.635Z,20.42
2023-05-16T11:47:02.763Z,20.42
2023-05-16T11:48:02.670Z,21.18
2023-05-16T11:49:02.656Z,19.38
2023-05-16T11:50:02.642Z,21.65
2023-05-16T11:51:02.637Z,21.93
2023-05-16T11:52:02.627Z,21.32
2023-05-16T11:53:02.612Z,20.47
2023-05-16T11:54:02.606Z,21.50
2023-05-16T11:55:02.643Z,20.71
2023-05-16T11:58:02.664Z,20.77
2023-05-16T11:59:02.664Z,19.82
2023-05-16T12:00:02.747Z,21.10
2023-05-16T12:01:02.602Z,20.65
2023-05-16T12:02:02.668Z,20.01
2023-05-16T12:03:02.743Z,20.24
2023-05-16T12:04:02.978Z,21.25
2023-05-16T12:05:02.660Z,20.24
2023-05-16T12:06:02.634Z,20.02
2023-05-16T12:07:02.634Z,19.77
2023-05-16T12:08:02.903Z,19.43
2023-05-16T12:09:02.662Z,18.63
2023-05-16T12:10:02.647Z,19.06
2023-05-16T12:11:02.710Z,20.65
2023-05-16T12:12:02.659Z,20.13
2023-05-16T12:13:02.719Z,19.91
2023-05-16T12:14:02.645Z,19.21
2023-05-16T12:15:02.775Z,19.15
2023-05-16T12:16:02.684Z,20.90
2023-05-16T12:17:02.759Z,20.33
2023-05-16T12:18:02.843Z,19.18
2023-05-16T12:19:02.711Z,18.63
2023-05-16T12:21:02.682Z,16.98
2023-05-16T12:22:02.673Z,17.66
2023-05-16T12:23:02.728Z,17.48
2023-05-16T12:24:02.706Z,16.95
2023-05-16T12:25:02.697Z,15.81
2023-05-16T12:26:02.802Z,18.46
2023-05-16T12:27:02.694Z,17.66
2023-05-16T12:28:02.716Z,17.03
2023-05-16T12:29:02.716Z,16.75
2023-05-16T12:30:02.698Z,17.26
2023-05-16T12:31:02.669Z,17.78
2023-05-16T12:32:02.774Z,17.32
2023-05-16T12:33:04.968Z,17.75
2023-05-16T12:34:02.719Z,17.57
2023-05-16T12:35:02.699Z,17.00
2023-05-16T12:36:02.720Z,16.92
2023-05-16T12:37:02.740Z,17.41
2023-05-16T12:39:02.717Z,16.19
2023-05-16T12:40:02.701Z,15.39
2023-05-16T12:41:02.744Z,14.96
2023-05-16T12:42:02.747Z,15.40
2023-05-16T12:43:02.744Z,15.45
2023-05-16T12:44:02.761Z,15.87
2023-05-16T12:45:02.784Z,14.14
2023-05-16T12:46:02.798Z,13.71
2023-05-16T12:47:02.753Z,14.90
2023-05-16T12:48:02.778Z,14.07
2023-05-16T12:49:02.764Z,13.49
2023-05-16T12:50:02.761Z,12.75
2023-05-16T12:53:02.740Z,13.64
2023-05-16T12:54:10.063Z,12.89
2023-05-16T12:55:02.792Z,13.42
2023-05-16T12:56:02.745Z,14.40
2023-05-16T12:57:02.838Z,12.92
2023-05-16T12:58:02.792Z,14.58
2023-05-16T12:59:02.803Z,15.32
2023-05-16T13:00:02.811Z,13.75
2023-05-16T13:02:02.886Z,13.18
2023-05-16T13:03:02.915Z,13.37
2023-05-16T13:04:02.943Z,15.54
2023-05-16T13:06:02.831Z,14.28
2023-05-16T13:07:02.783Z,13.65
2023-05-16T13:08:02.848Z,13.42
2023-05-16T13:09:02.804Z,12.97
2023-05-16T13:10:02.789Z,13.83
2023-05-16T13:11:02.810Z,13.61
2023-05-16T13:12:02.804Z,14.09
2023-05-16T13:13:02.854Z,14.69
2023-05-16T13:15:02.828Z,13.73
2023-05-16T13:16:02.856Z,13.26
2023-05-16T13:17:02.786Z,13.88
2023-05-16T13:19:02.958Z,13.36
2023-05-16T13:20:02.869Z,14.10
2023-05-16T13:21:02.853Z,13.22
2023-05-16T13:22:02.807Z,13.12
2023-05-16T13:23:02.838Z,13.76
2023-05-16T13:24:02.846Z,13.42
2023-05-16T13:25:02.870Z,13.65
2023-05-16T13:26:02.854Z,14.14
2023-05-16T13:27:02.847Z,13.51
2023-05-16T13:28:02.829Z,14.04
2023-05-16T13:29:02.888Z,13.30
2023-05-16T13:30:02.868Z,16.64
2023-05-16T13:31:02.869Z,14.35
2023-05-16T13:32:02.932Z,14.53
2023-05-16T13:33:02.977Z,15.26
2023-05-16T13:34:02.908Z,14.71
2023-05-16T13:35:02.858Z,13.80
2023-05-16T13:36:02.852Z,14.26
2023-05-16T13:37:02.845Z,12.66
2023-05-16T13:38:02.888Z,13.99
2023-05-16T13:39:02.890Z,12.89
2023-05-16T13:40:02.855Z,13.18
2023-05-16T13:41:02.933Z,14.21
2023-05-16T13:42:02.905Z,12.92
2023-05-16T13:43:02.873Z,14.60
2023-05-16T13:44:02.895Z,14.42
2023-05-16T13:45:02.856Z,12.72
2023-05-16T13:46:03.011Z,14.50
2023-05-16T13:47:02.904Z,14.40
2023-05-16T13:48:02.906Z,13.30
2023-05-16T13:49:02.917Z,14.60
2023-05-16T13:51:02.932Z,14.67
2023-05-16T13:52:02.921Z,14.88
2023-05-16T13:53:02.977Z,15.90
2023-05-16T13:54:02.951Z,14.24
2023-05-16T13:55:02.928Z,15.30
2023-05-16T13:56:02.892Z,14.64
2023-05-16T13:58:02.963Z,14.88
2023-05-16T13:59:06.954Z,14.40
2023-05-16T14:00:31.190Z,16.08
2023-05-16T14:01:02.930Z,13.86
2023-05-16T14:02:02.929Z,13.78
2023-05-16T14:03:03.087Z,14.13
2023-05-16T14:04:03.036Z,14.78
2023-05-16T14:05:03.004Z,14.86
2023-05-16T14:06:02.949Z,14.39
2023-05-16T14:07:02.961Z,14.60
2023-05-16T14:08:02.982Z,13.88
2023-05-16T14:09:02.941Z,16.07
2023-05-16T14:10:02.996Z,14.34
2023-05-16T14:11:02.998Z,13.60
2023-05-16T14:12:02.978Z,14.21
2023-05-16T14:13:02.995Z,13.05
2023-05-16T14:15:02.958Z,13.18
2023-05-16T14:16:02.993Z,12.89
2023-05-16T14:17:03.019Z,12.87
2023-05-16T14:18:03.045Z,12.57
2023-05-16T14:19:03.099Z,13.15
2023-05-16T14:20:03.050Z,13.51
2023-05-16T14:22:03.021Z,12.99
2023-05-16T14:23:03.055Z,12.88
2023-05-16T14:24:02.982Z,13.03
2023-05-16T14:25:03.020Z,12.25
2023-05-16T14:26:03.040Z,12.10
2023-05-16T14:27:02.958Z,12.29
2023-05-16T14:28:03.054Z,11.76
2023-05-16T14:29:03.033Z,11.80
2023-05-16T14:30:03.067Z,11.87
2023-05-16T14:31:03.046Z,10.14
2023-05-16T14:32:03.084Z,9.55
2023-05-16T14:33:03.094Z,10.94
2023-05-16T14:34:03.068Z,9.26
2023-05-16T14:35:03.030Z,9.79
2023-05-16T14:37:03.118Z,9.09
2023-05-16T14:38:03.048Z,8.57
2023-05-16T14:39:03.050Z,8.96
2023-05-16T14:40:03.035Z,8.77
2023-05-16T14:41:03.057Z,9.14
2023-05-16T14:42:03.071Z,8.14
2023-05-16T14:43:03.073Z,8.61
2023-05-16T14:44:03.065Z,8.05
2023-05-16T14:45:03.048Z,7.74
2023-05-16T14:46:03.106Z,8.61
2023-05-16T14:47:03.078Z,8.68
2023-05-16T14:48:03.094Z,9.37
2023-05-16T14:49:03.066Z,9.66
2023-05-16T14:51:03.088Z,8.28
2023-05-16T14:52:03.112Z,8.42
2023-05-16T14:53:03.040Z,7.88
2023-05-16T14:54:03.128Z,7.83
2023-05-16T14:55:03.110Z,7.98
2023-05-16T14:56:03.141Z,6.16
2023-05-16T14:57:03.130Z,7.27
2023-05-16T14:58:03.089Z,5.91
2023-05-16T14:59:03.049Z,6.04
2023-05-16T15:00:03.071Z,6.50
2023-05-16T15:02:03.125Z,7.85
2023-05-16T15:03:03.238Z,8.42
2023-05-16T15:04:03.127Z,9.24
2023-05-16T15:05:03.200Z,8.29
2023-05-16T15:06:03.098Z,8.38
2023-05-16T15:07:03.090Z,9.07
2023-05-16T15:09:03.117Z,5.75
2023-05-16T15:10:03.177Z,6.43
2023-05-16T15:11:03.144Z,6.58
2023-05-16T15:12:03.130Z,6.17
2023-05-16T15:13:03.154Z,7.48